sensor_id;sensor_type;location;lat;lon;timestamp;temperature;humidity
67901;DHT22;54700;51.796;10.956;2022-12-29T00:01:54;8.20;93.30
67901;DHT22;54700;51.796;10.956;2022-12-29T00:04:24;8.30;92.90
67901;DHT22;54700;51.796;10.956;2022-12-29T00:06:51;8.30;92.80
67901;DHT22;54700;51.796;10.956;2022-12-29T00:09:19;8.30;92.70
67901;DHT22;54700;51.796;10.956;2022-12-29T00:11:46;8.30;92.50
67901;DHT22;54700;51.796;10.956;2022-12-29T00:14:15;8.30;92.50
67901;DHT22;54700;51.796;10.956;2022-12-29T00:17:00;8.20;92.50
67901;DHT22;54700;51.796;10.956;2022-12-29T00:19:29;8.30;92.30
67901;DHT22;54700;51.796;10.956;2022-12-29T00:22:13;8.30;92.40
67901;DHT22;54700;51.796;10.956;2022-12-29T00:24:58;8.30;92.10
67901;DHT22;54700;51.796;10.956;2022-12-29T00:27:43;8.40;91.90
67901;DHT22;54700;51.796;10.956;2022-12-29T00:30:28;8.40;91.70
67901;DHT22;54700;51.796;10.956;2022-12-29T00:33:13;8.40;91.70
67901;DHT22;54700;51.796;10.956;2022-12-29T00:36:01;8.40;91.70
67901;DHT22;54700;51.796;10.956;2022-12-29T00:38:30;8.40;91.70
67901;DHT22;54700;51.796;10.956;2022-12-29T00:41:20;8.40;91.60
67901;DHT22;54700;51.796;10.956;2022-12-29T00:44:04;8.40;91.70
67901;DHT22;54700;51.796;10.956;2022-12-29T00:46:32;8.40;91.70
67901;DHT22;54700;51.796;10.956;2022-12-29T00:48:59;8.40;91.70
67901;DHT22;54700;51.796;10.956;2022-12-29T00:51:45;8.40;92.20
67901;DHT22;54700;51.796;10.956;2022-12-29T00:54:16;8.40;91.80
67901;DHT22;54700;51.796;10.956;2022-12-29T00:56:43;8.40;91.70
67901;DHT22;54700;51.796;10.956;2022-12-29T00:59:12;8.50;91.30
67901;DHT22;54700;51.796;10.956;2022-12-29T01:01:40;8.60;91.20
67901;DHT22;54700;51.796;10.956;2022-12-29T01:04:12;8.60;91.30
67901;DHT22;54700;51.796;10.956;2022-12-29T01:06:40;8.70;90.70
67901;DHT22;54700;51.796;10.956;2022-12-29T01:09:08;8.80;90.60
67901;DHT22;54700;51.796;10.956;2022-12-29T01:11:54;8.70;90.60
67901;DHT22;54700;51.796;10.956;2022-12-29T01:14:22;8.80;91.00
67901;DHT22;54700;51.796;10.956;2022-12-29T01:16:50;8.80;91.10
67901;DHT22;54700;51.796;10.956;2022-12-29T01:19:17;8.70;91.00
67901;DHT22;54700;51.796;10.956;2022-12-29T01:21:45;8.70;91.20
67901;DHT22;54700;51.796;10.956;2022-12-29T01:24:14;8.80;91.00
67901;DHT22;54700;51.796;10.956;2022-12-29T01:26:42;8.80;91.00
67901;DHT22;54700;51.796;10.956;2022-12-29T01:29:16;8.80;91.00
67901;DHT22;54700;51.796;10.956;2022-12-29T01:31:43;8.80;91.00
67901;DHT22;54700;51.796;10.956;2022-12-29T01:34:10;8.80;91.10
67901;DHT22;54700;51.796;10.956;2022-12-29T01:36:38;8.80;91.20
67901;DHT22;54700;51.796;10.956;2022-12-29T01:39:05;8.80;91.20
67901;DHT22;54700;51.796;10.956;2022-12-29T01:41:35;8.90;91.30
67901;DHT22;54700;51.796;10.956;2022-12-29T01:44:01;8.80;91.40
67901;DHT22;54700;51.796;10.956;2022-12-29T01:46:30;8.90;91.40
67901;DHT22;54700;51.796;10.956;2022-12-29T01:49:04;8.80;91.40
67901;DHT22;54700;51.796;10.956;2022-12-29T01:51:38;8.90;91.40
67901;DHT22;54700;51.796;10.956;2022-12-29T01:54:10;8.80;91.20
67901;DHT22;54700;51.796;10.956;2022-12-29T01:56:42;8.80;91.30
67901;DHT22;54700;51.796;10.956;2022-12-29T01:59:19;8.80;91.50
67901;DHT22;54700;51.796;10.956;2022-12-29T02:01:51;8.80;91.70
67901;DHT22;54700;51.796;10.956;2022-12-29T02:04:18;8.80;92.50
67901;DHT22;54700;51.796;10.956;2022-12-29T02:06:48;8.80;92.80
67901;DHT22;54700;51.796;10.956;2022-12-29T02:09:19;8.70;92.90
67901;DHT22;54700;51.796;10.956;2022-12-29T02:11:47;8.70;92.60
67901;DHT22;54700;51.796;10.956;2022-12-29T02:14:14;8.70;92.70
67901;DHT22;54700;51.796;10.956;2022-12-29T02:16:46;8.70;92.60
67901;DHT22;54700;51.796;10.956;2022-12-29T02:19:32;8.70;92.60
67901;DHT22;54700;51.796;10.956;2022-12-29T02:22:18;8.80;92.50
67901;DHT22;54700;51.796;10.956;2022-12-29T02:28:12;8.80;92.40
67901;DHT22;54700;51.796;10.956;2022-12-29T02:31:03;8.80;92.60
67901;DHT22;54700;51.796;10.956;2022-12-29T02:33:42;8.80;92.50
67901;DHT22;54700;51.796;10.956;2022-12-29T02:36:25;8.90;92.50
67901;DHT22;54700;51.796;10.956;2022-12-29T02:39:02;8.90;92.40
67901;DHT22;54700;51.796;10.956;2022-12-29T02:41:38;9.00;92.30
67901;DHT22;54700;51.796;10.956;2022-12-29T02:44:12;9.00;92.00
67901;DHT22;54700;51.796;10.956;2022-12-29T02:46:51;9.00;92.00
67901;DHT22;54700;51.796;10.956;2022-12-29T02:49:25;9.10;92.10
67901;DHT22;54700;51.796;10.956;2022-12-29T02:51:58;9.00;92.00
67901;DHT22;54700;51.796;10.956;2022-12-29T02:54:29;9.10;92.00
67901;DHT22;54700;51.796;10.956;2022-12-29T02:57:14;9.10;91.80
67901;DHT22;54700;51.796;10.956;2022-12-29T02:59:54;9.20;91.70
67901;DHT22;54700;51.796;10.956;2022-12-29T03:02:29;9.20;91.60
67901;DHT22;54700;51.796;10.956;2022-12-29T03:05:12;9.30;91.50
67901;DHT22;54700;51.796;10.956;2022-12-29T03:07:50;9.30;91.30
67901;DHT22;54700;51.796;10.956;2022-12-29T03:10:25;9.30;91.30
67901;DHT22;54700;51.796;10.956;2022-12-29T03:13:02;9.40;91.00
67901;DHT22;54700;51.796;10.956;2022-12-29T03:15:53;9.40;90.90
67901;DHT22;54700;51.796;10.956;2022-12-29T03:18:32;9.40;90.80
67901;DHT22;54700;51.796;10.956;2022-12-29T03:21:05;9.50;90.90
67901;DHT22;54700;51.796;10.956;2022-12-29T03:23:37;9.40;91.00
67901;DHT22;54700;51.796;10.956;2022-12-29T03:26:09;9.50;91.00
67901;DHT22;54700;51.796;10.956;2022-12-29T03:28:38;9.50;90.80
67901;DHT22;54700;51.796;10.956;2022-12-29T03:31:07;9.50;90.90
67901;DHT22;54700;51.796;10.956;2022-12-29T03:33:38;9.50;91.00
67901;DHT22;54700;51.796;10.956;2022-12-29T03:36:09;9.50;91.00
67901;DHT22;54700;51.796;10.956;2022-12-29T03:38:42;9.50;90.80
67901;DHT22;54700;51.796;10.956;2022-12-29T03:41:14;9.50;90.80
67901;DHT22;54700;51.796;10.956;2022-12-29T03:43:43;9.50;90.80
67901;DHT22;54700;51.796;10.956;2022-12-29T03:46:10;9.50;91.40
67901;DHT22;54700;51.796;10.956;2022-12-29T03:48:41;9.50;91.80
67901;DHT22;54700;51.796;10.956;2022-12-29T03:51:08;9.40;92.40
67901;DHT22;54700;51.796;10.956;2022-12-29T03:53:36;9.40;92.80
67901;DHT22;54700;51.796;10.956;2022-12-29T03:56:02;9.40;93.00
67901;DHT22;54700;51.796;10.956;2022-12-29T03:58:30;9.40;92.70
67901;DHT22;54700;51.796;10.956;2022-12-29T04:00:59;9.30;92.80
67901;DHT22;54700;51.796;10.956;2022-12-29T04:03:25;9.30;92.90
67901;DHT22;54700;51.796;10.956;2022-12-29T04:05:54;9.30;93.10
67901;DHT22;54700;51.796;10.956;2022-12-29T04:08:22;9.30;93.10
67901;DHT22;54700;51.796;10.956;2022-12-29T04:10:49;9.30;93.00
67901;DHT22;54700;51.796;10.956;2022-12-29T04:13:18;9.30;92.70
67901;DHT22;54700;51.796;10.956;2022-12-29T04:15:45;9.30;92.60
67901;DHT22;54700;51.796;10.956;2022-12-29T04:18:12;9.30;92.70
67901;DHT22;54700;51.796;10.956;2022-12-29T04:20:39;9.30;92.50
67901;DHT22;54700;51.796;10.956;2022-12-29T04:23:25;9.20;92.80
67901;DHT22;54700;51.796;10.956;2022-12-29T04:25:53;9.10;92.80
67901;DHT22;54700;51.796;10.956;2022-12-29T04:28:19;9.10;93.10
67901;DHT22;54700;51.796;10.956;2022-12-29T04:30:46;9.10;93.10
67901;DHT22;54700;51.796;10.956;2022-12-29T04:33:16;9.10;93.10
67901;DHT22;54700;51.796;10.956;2022-12-29T04:35:44;9.20;92.70
67901;DHT22;54700;51.796;10.956;2022-12-29T04:38:11;9.30;92.40
67901;DHT22;54700;51.796;10.956;2022-12-29T04:40:40;9.30;92.20
67901;DHT22;54700;51.796;10.956;2022-12-29T04:43:07;9.30;92.00
67901;DHT22;54700;51.796;10.956;2022-12-29T04:45:35;9.40;91.80
67901;DHT22;54700;51.796;10.956;2022-12-29T04:48:02;9.50;91.40
67901;DHT22;54700;51.796;10.956;2022-12-29T04:50:29;9.50;91.20
67901;DHT22;54700;51.796;10.956;2022-12-29T04:52:58;9.50;91.10
67901;DHT22;54700;51.796;10.956;2022-12-29T04:55:25;9.50;91.00
67901;DHT22;54700;51.796;10.956;2022-12-29T04:57:54;9.50;90.90
67901;DHT22;54700;51.796;10.956;2022-12-29T05:00:21;9.50;90.70
67901;DHT22;54700;51.796;10.956;2022-12-29T05:02:49;9.50;90.70
67901;DHT22;54700;51.796;10.956;2022-12-29T05:05:16;9.50;90.60
67901;DHT22;54700;51.796;10.956;2022-12-29T05:07:43;9.50;90.60
67901;DHT22;54700;51.796;10.956;2022-12-29T05:10:10;9.50;90.50
67901;DHT22;54700;51.796;10.956;2022-12-29T05:12:38;9.60;90.40
67901;DHT22;54700;51.796;10.956;2022-12-29T05:15:07;9.60;90.10
67901;DHT22;54700;51.796;10.956;2022-12-29T05:17:35;9.60;90.10
67901;DHT22;54700;51.796;10.956;2022-12-29T05:20:02;9.60;90.10
67901;DHT22;54700;51.796;10.956;2022-12-29T05:22:30;9.70;90.00
67901;DHT22;54700;51.796;10.956;2022-12-29T05:24:57;9.70;90.00
67901;DHT22;54700;51.796;10.956;2022-12-29T05:27:24;9.60;90.00
67901;DHT22;54700;51.796;10.956;2022-12-29T05:29:51;9.70;89.80
67901;DHT22;54700;51.796;10.956;2022-12-29T05:32:22;9.80;89.80
67901;DHT22;54700;51.796;10.956;2022-12-29T05:34:49;9.70;90.00
67901;DHT22;54700;51.796;10.956;2022-12-29T05:37:16;9.70;89.90
67901;DHT22;54700;51.796;10.956;2022-12-29T05:39:43;9.80;90.00
67901;DHT22;54700;51.796;10.956;2022-12-29T05:42:10;9.70;90.00
67901;DHT22;54700;51.796;10.956;2022-12-29T05:44:37;9.80;90.00
67901;DHT22;54700;51.796;10.956;2022-12-29T05:47:04;9.80;90.00
67901;DHT22;54700;51.796;10.956;2022-12-29T05:49:33;9.80;89.80
67901;DHT22;54700;51.796;10.956;2022-12-29T05:52:00;9.90;90.00
67901;DHT22;54700;51.796;10.956;2022-12-29T05:54:27;9.90;90.00
67901;DHT22;54700;51.796;10.956;2022-12-29T05:56:53;9.90;90.00
67901;DHT22;54700;51.796;10.956;2022-12-29T05:59:25;9.90;90.00
67901;DHT22;54700;51.796;10.956;2022-12-29T06:01:51;9.90;89.90
67901;DHT22;54700;51.796;10.956;2022-12-29T06:04:19;9.90;89.90
67901;DHT22;54700;51.796;10.956;2022-12-29T06:06:47;9.90;90.00
67901;DHT22;54700;51.796;10.956;2022-12-29T06:09:14;10.00;89.80
67901;DHT22;54700;51.796;10.956;2022-12-29T06:11:41;10.00;89.60
67901;DHT22;54700;51.796;10.956;2022-12-29T06:14:19;10.00;89.30
67901;DHT22;54700;51.796;10.956;2022-12-29T06:16:45;10.10;88.80
67901;DHT22;54700;51.796;10.956;2022-12-29T06:19:12;10.20;88.30
67901;DHT22;54700;51.796;10.956;2022-12-29T06:21:39;10.20;88.10
67901;DHT22;54700;51.796;10.956;2022-12-29T06:24:08;10.20;88.10
67901;DHT22;54700;51.796;10.956;2022-12-29T06:26:36;10.20;88.70
67901;DHT22;54700;51.796;10.956;2022-12-29T06:29:03;10.20;87.60
67901;DHT22;54700;51.796;10.956;2022-12-29T06:31:30;10.20;87.70
67901;DHT22;54700;51.796;10.956;2022-12-29T06:33:57;10.30;87.50
67901;DHT22;54700;51.796;10.956;2022-12-29T06:36:24;10.20;87.20
67901;DHT22;54700;51.796;10.956;2022-12-29T06:38:51;10.20;87.60
67901;DHT22;54700;51.796;10.956;2022-12-29T06:41:21;10.10;87.90
67901;DHT22;54700;51.796;10.956;2022-12-29T06:43:47;10.10;87.80
67901;DHT22;54700;51.796;10.956;2022-12-29T06:46:14;10.10;88.10
67901;DHT22;54700;51.796;10.956;2022-12-29T06:48:48;10.10;88.50
67901;DHT22;54700;51.796;10.956;2022-12-29T06:51:17;10.10;88.40
67901;DHT22;54700;51.796;10.956;2022-12-29T06:53:46;10.20;88.00
67901;DHT22;54700;51.796;10.956;2022-12-29T06:56:14;10.10;88.10
67901;DHT22;54700;51.796;10.956;2022-12-29T06:58:42;10.10;88.40
67901;DHT22;54700;51.796;10.956;2022-12-29T07:01:09;10.00;88.50
67901;DHT22;54700;51.796;10.956;2022-12-29T07:03:38;10.00;88.40
67901;DHT22;54700;51.796;10.956;2022-12-29T07:06:07;10.00;88.50
67901;DHT22;54700;51.796;10.956;2022-12-29T07:08:34;10.00;88.00
67901;DHT22;54700;51.796;10.956;2022-12-29T07:11:01;10.00;88.00
67901;DHT22;54700;51.796;10.956;2022-12-29T07:13:28;10.00;88.10
67901;DHT22;54700;51.796;10.956;2022-12-29T07:15:56;9.90;88.40
67901;DHT22;54700;51.796;10.956;2022-12-29T07:18:23;9.90;88.40
67901;DHT22;54700;51.796;10.956;2022-12-29T07:20:50;9.90;88.20
67901;DHT22;54700;51.796;10.956;2022-12-29T07:23:17;10.00;88.10
67901;DHT22;54700;51.796;10.956;2022-12-29T07:25:43;9.90;88.00
67901;DHT22;54700;51.796;10.956;2022-12-29T07:28:10;10.00;87.50
67901;DHT22;54700;51.796;10.956;2022-12-29T07:30:37;10.00;87.00
67901;DHT22;54700;51.796;10.956;2022-12-29T07:33:07;10.20;86.10
67901;DHT22;54700;51.796;10.956;2022-12-29T07:35:34;10.20;86.40
67901;DHT22;54700;51.796;10.956;2022-12-29T07:38:01;10.40;84.50
67901;DHT22;54700;51.796;10.956;2022-12-29T07:40:27;10.40;83.60
67901;DHT22;54700;51.796;10.956;2022-12-29T07:42:54;10.40;83.20
67901;DHT22;54700;51.796;10.956;2022-12-29T07:45:21;10.40;83.30
67901;DHT22;54700;51.796;10.956;2022-12-29T07:47:48;10.50;82.60
67901;DHT22;54700;51.796;10.956;2022-12-29T07:50:17;10.50;82.80
67901;DHT22;54700;51.796;10.956;2022-12-29T07:52:44;10.50;82.80
67901;DHT22;54700;51.796;10.956;2022-12-29T07:55:13;10.50;83.10
67901;DHT22;54700;51.796;10.956;2022-12-29T07:57:40;10.50;83.70
67901;DHT22;54700;51.796;10.956;2022-12-29T08:00:07;10.50;84.50
67901;DHT22;54700;51.796;10.956;2022-12-29T08:02:35;10.40;85.10
67901;DHT22;54700;51.796;10.956;2022-12-29T08:05:02;10.50;85.20
67901;DHT22;54700;51.796;10.956;2022-12-29T08:07:30;10.50;85.40
67901;DHT22;54700;51.796;10.956;2022-12-29T08:09:57;10.40;85.50
67901;DHT22;54700;51.796;10.956;2022-12-29T08:12:24;10.50;85.70
67901;DHT22;54700;51.796;10.956;2022-12-29T08:14:50;10.50;85.40
67901;DHT22;54700;51.796;10.956;2022-12-29T08:17:17;10.50;86.00
67901;DHT22;54700;51.796;10.956;2022-12-29T08:19:44;10.50;86.20
67901;DHT22;54700;51.796;10.956;2022-12-29T08:22:10;10.50;86.20
67901;DHT22;54700;51.796;10.956;2022-12-29T08:24:42;10.50;86.30
67901;DHT22;54700;51.796;10.956;2022-12-29T08:27:08;10.50;86.10
67901;DHT22;54700;51.796;10.956;2022-12-29T08:29:35;10.60;85.90
67901;DHT22;54700;51.796;10.956;2022-12-29T08:32:02;10.60;85.40
67901;DHT22;54700;51.796;10.956;2022-12-29T08:34:29;10.70;84.80
67901;DHT22;54700;51.796;10.956;2022-12-29T08:36:56;10.80;84.20
67901;DHT22;54700;51.796;10.956;2022-12-29T08:39:23;10.90;83.90
67901;DHT22;54700;51.796;10.956;2022-12-29T08:41:52;11.00;83.50
67901;DHT22;54700;51.796;10.956;2022-12-29T08:44:18;11.00;83.10
67901;DHT22;54700;51.796;10.956;2022-12-29T08:46:45;11.10;83.30
67901;DHT22;54700;51.796;10.956;2022-12-29T08:49:11;11.10;83.70
67901;DHT22;54700;51.796;10.956;2022-12-29T08:51:38;11.10;83.80
67901;DHT22;54700;51.796;10.956;2022-12-29T08:54:05;11.10;85.30
67901;DHT22;54700;51.796;10.956;2022-12-29T08:56:32;11.00;85.90
67901;DHT22;54700;51.796;10.956;2022-12-29T08:59:00;11.00;86.80
67901;DHT22;54700;51.796;10.956;2022-12-29T09:01:29;10.90;88.60
67901;DHT22;54700;51.796;10.956;2022-12-29T09:03:56;10.80;90.30
67901;DHT22;54700;51.796;10.956;2022-12-29T09:06:23;10.70;91.50
67901;DHT22;54700;51.796;10.956;2022-12-29T09:08:49;10.50;92.00
67901;DHT22;54700;51.796;10.956;2022-12-29T09:11:17;10.40;93.30
67901;DHT22;54700;51.796;10.956;2022-12-29T09:13:45;10.20;94.30
67901;DHT22;54700;51.796;10.956;2022-12-29T09:16:14;10.10;94.40
67901;DHT22;54700;51.796;10.956;2022-12-29T09:18:43;10.10;95.20
67901;DHT22;54700;51.796;10.956;2022-12-29T09:21:10;9.90;95.80
67901;DHT22;54700;51.796;10.956;2022-12-29T09:23:38;9.90;96.80
67901;DHT22;54700;51.796;10.956;2022-12-29T09:26:05;9.80;97.20
67901;DHT22;54700;51.796;10.956;2022-12-29T09:28:33;9.80;97.90
67901;DHT22;54700;51.796;10.956;2022-12-29T09:31:00;9.70;98.30
67901;DHT22;54700;51.796;10.956;2022-12-29T09:33:28;9.60;99.10
67901;DHT22;54700;51.796;10.956;2022-12-29T09:36:00;9.60;97.30
67901;DHT22;54700;51.796;10.956;2022-12-29T09:38:28;9.50;98.30
67901;DHT22;54700;51.796;10.956;2022-12-29T09:40:56;9.40;98.80
67901;DHT22;54700;51.796;10.956;2022-12-29T09:43:42;9.30;96.70
67901;DHT22;54700;51.796;10.956;2022-12-29T09:46:26;9.20;97.20
67901;DHT22;54700;51.796;10.956;2022-12-29T09:48:57;9.10;96.90
67901;DHT22;54700;51.796;10.956;2022-12-29T09:51:36;9.00;97.30
67901;DHT22;54700;51.796;10.956;2022-12-29T09:54:10;9.00;97.60
67901;DHT22;54700;51.796;10.956;2022-12-29T09:56:48;8.90;97.90
67901;DHT22;54700;51.796;10.956;2022-12-29T09:59:16;8.90;98.20
67901;DHT22;54700;51.796;10.956;2022-12-29T10:01:46;8.80;99.30
67901;DHT22;54700;51.796;10.956;2022-12-29T10:04:26;8.60;96.40
67901;DHT22;54700;51.796;10.956;2022-12-29T10:06:55;8.50;97.10
67901;DHT22;54700;51.796;10.956;2022-12-29T10:09:29;8.50;94.30
67901;DHT22;54700;51.796;10.956;2022-12-29T10:12:07;8.60;94.00
67901;DHT22;54700;51.796;10.956;2022-12-29T10:14:47;8.60;94.40
67901;DHT22;54700;51.796;10.956;2022-12-29T10:17:27;8.70;94.10
67901;DHT22;54700;51.796;10.956;2022-12-29T10:25:54;9.00;92.70
67901;DHT22;54700;51.796;10.956;2022-12-29T10:28:22;9.00;93.40
67901;DHT22;54700;51.796;10.956;2022-12-29T10:30:51;9.00;93.90
67901;DHT22;54700;51.796;10.956;2022-12-29T10:33:25;9.00;93.70
67901;DHT22;54700;51.796;10.956;2022-12-29T10:35:59;9.00;93.50
67901;DHT22;54700;51.796;10.956;2022-12-29T10:38:37;9.00;94.10
67901;DHT22;54700;51.796;10.956;2022-12-29T10:41:11;9.00;93.00
67901;DHT22;54700;51.796;10.956;2022-12-29T10:43:43;9.00;94.90
67901;DHT22;54700;51.796;10.956;2022-12-29T10:46:16;9.00;95.20
67901;DHT22;54700;51.796;10.956;2022-12-29T10:48:45;9.00;95.60
67901;DHT22;54700;51.796;10.956;2022-12-29T10:51:15;9.00;95.40
67901;DHT22;54700;51.796;10.956;2022-12-29T10:53:47;9.00;96.30
67901;DHT22;54700;51.796;10.956;2022-12-29T10:56:20;9.00;96.60
67901;DHT22;54700;51.796;10.956;2022-12-29T10:58:52;9.00;96.70
67901;DHT22;54700;51.796;10.956;2022-12-29T11:01:21;9.00;96.80
67901;DHT22;54700;51.796;10.956;2022-12-29T11:03:57;9.00;97.00
67901;DHT22;54700;51.796;10.956;2022-12-29T11:06:30;9.00;97.50
67901;DHT22;54700;51.796;10.956;2022-12-29T11:08:58;9.00;98.30
67901;DHT22;54700;51.796;10.956;2022-12-29T11:11:32;9.00;98.40
67901;DHT22;54700;51.796;10.956;2022-12-29T11:14:02;9.10;98.30
67901;DHT22;54700;51.796;10.956;2022-12-29T11:16:36;9.10;98.30
67901;DHT22;54700;51.796;10.956;2022-12-29T11:19:03;9.20;98.10
67901;DHT22;54700;51.796;10.956;2022-12-29T11:21:33;9.30;97.80
67901;DHT22;54700;51.796;10.956;2022-12-29T11:24:08;9.40;98.50
67901;DHT22;54700;51.796;10.956;2022-12-29T11:26:45;9.50;98.60
67901;DHT22;54700;51.796;10.956;2022-12-29T11:29:26;9.70;96.60
67901;DHT22;54700;51.796;10.956;2022-12-29T11:31:55;9.80;95.20
67901;DHT22;54700;51.796;10.956;2022-12-29T11:34:24;10.00;96.10
67901;DHT22;54700;51.796;10.956;2022-12-29T11:37:00;10.10;96.00
67901;DHT22;54700;51.796;10.956;2022-12-29T11:39:30;10.20;95.60
67901;DHT22;54700;51.796;10.956;2022-12-29T11:42:02;10.30;93.30
67901;DHT22;54700;51.796;10.956;2022-12-29T11:44:31;10.30;92.00
67901;DHT22;54700;51.796;10.956;2022-12-29T11:47:03;10.40;90.80
67901;DHT22;54700;51.796;10.956;2022-12-29T11:49:32;10.50;91.30
67901;DHT22;54700;51.796;10.956;2022-12-29T11:52:00;10.50;90.50
67901;DHT22;54700;51.796;10.956;2022-12-29T11:54:28;10.60;87.50
67901;DHT22;54700;51.796;10.956;2022-12-29T11:56:57;10.60;87.50
67901;DHT22;54700;51.796;10.956;2022-12-29T11:59:35;10.60;87.10
67901;DHT22;54700;51.796;10.956;2022-12-29T12:02:12;10.60;84.70
67901;DHT22;54700;51.796;10.956;2022-12-29T12:04:51;10.60;83.40
67901;DHT22;54700;51.796;10.956;2022-12-29T12:07:31;10.60;80.50
67901;DHT22;54700;51.796;10.956;2022-12-29T12:10:04;10.50;81.60
67901;DHT22;54700;51.796;10.956;2022-12-29T12:12:34;10.50;79.80
67901;DHT22;54700;51.796;10.956;2022-12-29T12:15:06;10.50;81.00
67901;DHT22;54700;51.796;10.956;2022-12-29T12:17:44;10.50;82.00
67901;DHT22;54700;51.796;10.956;2022-12-29T12:20:17;10.50;80.50
67901;DHT22;54700;51.796;10.956;2022-12-29T12:22:51;10.50;80.40
67901;DHT22;54700;51.796;10.956;2022-12-29T12:25:28;10.40;82.90
67901;DHT22;54700;51.796;10.956;2022-12-29T12:28:02;10.40;80.80
67901;DHT22;54700;51.796;10.956;2022-12-29T12:30:40;10.30;80.80
67901;DHT22;54700;51.796;10.956;2022-12-29T12:33:15;10.30;80.50
67901;DHT22;54700;51.796;10.956;2022-12-29T12:35:48;10.30;79.20
67901;DHT22;54700;51.796;10.956;2022-12-29T12:38:26;10.30;81.40
67901;DHT22;54700;51.796;10.956;2022-12-29T12:41:08;10.30;80.40
67901;DHT22;54700;51.796;10.956;2022-12-29T12:43:39;10.20;79.30
67901;DHT22;54700;51.796;10.956;2022-12-29T12:46:18;10.20;78.80
67901;DHT22;54700;51.796;10.956;2022-12-29T12:49:23;10.20;79.00
67901;DHT22;54700;51.796;10.956;2022-12-29T12:52:04;10.20;80.60
67901;DHT22;54700;51.796;10.956;2022-12-29T12:54:45;10.20;80.30
67901;DHT22;54700;51.796;10.956;2022-12-29T12:57:32;10.10;79.90
67901;DHT22;54700;51.796;10.956;2022-12-29T13:00:11;10.20;78.00
67901;DHT22;54700;51.796;10.956;2022-12-29T13:02:46;10.20;77.60
67901;DHT22;54700;51.796;10.956;2022-12-29T13:05:33;10.30;77.10
67901;DHT22;54700;51.796;10.956;2022-12-29T13:08:14;10.20;78.40
67901;DHT22;54700;51.796;10.956;2022-12-29T13:10:58;10.20;77.10
67901;DHT22;54700;51.796;10.956;2022-12-29T13:13:34;10.20;78.00
67901;DHT22;54700;51.796;10.956;2022-12-29T13:16:12;10.10;78.60
67901;DHT22;54700;51.796;10.956;2022-12-29T13:18:50;10.10;79.30
67901;DHT22;54700;51.796;10.956;2022-12-29T13:21:27;10.10;79.50
67901;DHT22;54700;51.796;10.956;2022-12-29T13:24:03;10.00;79.10
67901;DHT22;54700;51.796;10.956;2022-12-29T13:26:42;10.10;76.90
67901;DHT22;54700;51.796;10.956;2022-12-29T13:29:15;10.00;79.40
67901;DHT22;54700;51.796;10.956;2022-12-29T13:31:47;10.00;77.40
67901;DHT22;54700;51.796;10.956;2022-12-29T13:34:24;10.00;76.30
67901;DHT22;54700;51.796;10.956;2022-12-29T13:36:59;10.10;76.30
67901;DHT22;54700;51.796;10.956;2022-12-29T13:39:31;10.10;74.70
67901;DHT22;54700;51.796;10.956;2022-12-29T13:42:03;10.10;76.00
67901;DHT22;54700;51.796;10.956;2022-12-29T13:44:31;10.10;75.60
67901;DHT22;54700;51.796;10.956;2022-12-29T13:47:01;10.10;75.30
67901;DHT22;54700;51.796;10.956;2022-12-29T13:49:38;10.00;75.40
67901;DHT22;54700;51.796;10.956;2022-12-29T13:52:11;10.00;74.10
67901;DHT22;54700;51.796;10.956;2022-12-29T13:54:43;10.00;73.40
67901;DHT22;54700;51.796;10.956;2022-12-29T13:57:24;10.00;74.20
67901;DHT22;54700;51.796;10.956;2022-12-29T13:59:59;10.00;73.20
67901;DHT22;54700;51.796;10.956;2022-12-29T14:02:31;10.10;72.30
67901;DHT22;54700;51.796;10.956;2022-12-29T14:07:56;10.00;74.20
67901;DHT22;54700;51.796;10.956;2022-12-29T14:10:26;10.00;73.70
67901;DHT22;54700;51.796;10.956;2022-12-29T14:13:04;10.00;73.70
67901;DHT22;54700;51.796;10.956;2022-12-29T14:15:37;10.00;74.80
67901;DHT22;54700;51.796;10.956;2022-12-29T14:18:10;9.90;75.30
67901;DHT22;54700;51.796;10.956;2022-12-29T14:20:46;9.90;74.30
67901;DHT22;54700;51.796;10.956;2022-12-29T14:23:25;9.90;73.40
67901;DHT22;54700;51.796;10.956;2022-12-29T14:25:58;9.90;74.70
67901;DHT22;54700;51.796;10.956;2022-12-29T14:28:36;10.00;73.90
67901;DHT22;54700;51.796;10.956;2022-12-29T14:31:18;10.00;74.50
67901;DHT22;54700;51.796;10.956;2022-12-29T14:34:25;10.00;73.80
67901;DHT22;54700;51.796;10.956;2022-12-29T14:36:54;10.00;74.00
67901;DHT22;54700;51.796;10.956;2022-12-29T14:39:31;10.00;74.20
67901;DHT22;54700;51.796;10.956;2022-12-29T14:42:03;10.00;74.50
67901;DHT22;54700;51.796;10.956;2022-12-29T14:44:45;10.00;75.40
67901;DHT22;54700;51.796;10.956;2022-12-29T14:47:16;9.90;76.70
67901;DHT22;54700;51.796;10.956;2022-12-29T14:49:45;9.90;77.20
67901;DHT22;54700;51.796;10.956;2022-12-29T14:52:14;9.80;79.00
67901;DHT22;54700;51.796;10.956;2022-12-29T14:54:45;9.80;79.90
67901;DHT22;54700;51.796;10.956;2022-12-29T14:57:22;9.70;81.20
67901;DHT22;54700;51.796;10.956;2022-12-29T15:00:00;9.60;82.20
67901;DHT22;54700;51.796;10.956;2022-12-29T15:02:36;9.60;83.20
67901;DHT22;54700;51.796;10.956;2022-12-29T15:05:10;9.50;84.30
67901;DHT22;54700;51.796;10.956;2022-12-29T15:07:51;9.50;85.20
67901;DHT22;54700;51.796;10.956;2022-12-29T15:10:21;9.40;87.50
67901;DHT22;54700;51.796;10.956;2022-12-29T15:12:49;9.30;88.00
67901;DHT22;54700;51.796;10.956;2022-12-29T15:15:21;9.30;86.90
67901;DHT22;54700;51.796;10.956;2022-12-29T15:17:50;9.20;88.60
67901;DHT22;54700;51.796;10.956;2022-12-29T15:20:22;9.20;88.90
67901;DHT22;54700;51.796;10.956;2022-12-29T15:22:52;9.10;89.60
67901;DHT22;54700;51.796;10.956;2022-12-29T15:25:23;9.10;90.10
67901;DHT22;54700;51.796;10.956;2022-12-29T15:27:51;9.00;90.80
67901;DHT22;54700;51.796;10.956;2022-12-29T15:30:22;8.90;90.90
67901;DHT22;54700;51.796;10.956;2022-12-29T15:32:50;8.80;91.50
67901;DHT22;54700;51.796;10.956;2022-12-29T15:35:29;8.70;91.60
67901;DHT22;54700;51.796;10.956;2022-12-29T15:38:00;8.60;91.80
67901;DHT22;54700;51.796;10.956;2022-12-29T15:40:42;8.50;92.20
67901;DHT22;54700;51.796;10.956;2022-12-29T15:43:13;8.50;92.30
67901;DHT22;54700;51.796;10.956;2022-12-29T15:45:57;8.40;92.80
67901;DHT22;54700;51.796;10.956;2022-12-29T15:48:25;8.30;92.50
67901;DHT22;54700;51.796;10.956;2022-12-29T15:50:52;8.30;92.70
67901;DHT22;54700;51.796;10.956;2022-12-29T15:53:19;8.30;92.30
67901;DHT22;54700;51.796;10.956;2022-12-29T15:55:53;8.30;92.10
67901;DHT22;54700;51.796;10.956;2022-12-29T15:58:24;8.40;91.50
67901;DHT22;54700;51.796;10.956;2022-12-29T16:00:53;8.50;91.30
67901;DHT22;54700;51.796;10.956;2022-12-29T16:03:22;8.60;91.30
67901;DHT22;54700;51.796;10.956;2022-12-29T16:05:53;8.60;91.30